sensor_id;sensor_type;location;lat;lon;timestamp;P1;durP1;ratioP1;P2;durP2;ratioP2
73113;SDS011;61301;51.956;5.876;2023-02-22T00:00:24;23.42;;;16.90;;
73113;SDS011;61301;51.956;5.876;2023-02-22T00:03:11;25.42;;;18.30;;
73113;SDS011;61301;51.956;5.876;2023-02-22T00:05:41;26.10;;;18.67;;
73113;SDS011;61301;51.956;5.876;2023-02-22T00:08:12;25.27;;;18.73;;
73113;SDS011;61301;51.956;5.876;2023-02-22T00:10:40;24.50;;;18.88;;
73113;SDS011;61301;51.956;5.876;2023-02-22T00:13:07;24.38;;;18.60;;
73113;SDS011;61301;51.956;5.876;2023-02-22T00:15:35;23.95;;;17.52;;
73113;SDS011;61301;51.956;5.876;2023-02-22T00:18:04;25.17;;;18.08;;
73113;SDS011;61301;51.956;5.876;2023-02-22T00:20:31;26.90;;;19.75;;
73113;SDS011;61301;51.956;5.876;2023-02-22T00:22:57;23.88;;;17.13;;
73113;SDS011;61301;51.956;5.876;2023-02-22T00:25:25;23.50;;;16.50;;
73113;SDS011;61301;51.956;5.876;2023-02-22T00:27:52;24.27;;;17.20;;
73113;SDS011;61301;51.956;5.876;2023-02-22T00:30:22;22.58;;;16.38;;
73113;SDS011;61301;51.956;5.876;2023-02-22T00:32:53;25.13;;;17.35;;
73113;SDS011;61301;51.956;5.876;2023-02-22T00:35:21;25.05;;;17.95;;
73113;SDS011;61301;51.956;5.876;2023-02-22T00:37:51;28.02;;;20.67;;
73113;SDS011;61301;51.956;5.876;2023-02-22T00:40:20;28.73;;;19.80;;
73113;SDS011;61301;51.956;5.876;2023-02-22T00:42:48;25.65;;;18.25;;
73113;SDS011;61301;51.956;5.876;2023-02-22T00:45:15;28.10;;;20.05;;
73113;SDS011;61301;51.956;5.876;2023-02-22T00:47:43;29.40;;;19.90;;
73113;SDS011;61301;51.956;5.876;2023-02-22T00:50:09;31.50;;;21.55;;
73113;SDS011;61301;51.956;5.876;2023-02-22T00:52:36;25.80;;;18.85;;
73113;SDS011;61301;51.956;5.876;2023-02-22T00:55:04;30.48;;;20.98;;
73113;SDS011;61301;51.956;5.876;2023-02-22T00:57:31;31.33;;;22.25;;
73113;SDS011;61301;51.956;5.876;2023-02-22T01:00:06;29.77;;;21.30;;
73113;SDS011;61301;51.956;5.876;2023-02-22T01:02:38;29.70;;;20.42;;
73113;SDS011;61301;51.956;5.876;2023-02-22T01:05:09;32.53;;;21.77;;
73113;SDS011;61301;51.956;5.876;2023-02-22T01:07:37;33.42;;;22.35;;
73113;SDS011;61301;51.956;5.876;2023-02-22T01:10:05;36.28;;;24.42;;
73113;SDS011;61301;51.956;5.876;2023-02-22T01:12:33;35.38;;;23.95;;
73113;SDS011;61301;51.956;5.876;2023-02-22T01:15:00;37.00;;;24.88;;
73113;SDS011;61301;51.956;5.876;2023-02-22T01:17:28;36.97;;;23.92;;
73113;SDS011;61301;51.956;5.876;2023-02-22T01:19:55;36.45;;;24.63;;
73113;SDS011;61301;51.956;5.876;2023-02-22T01:22:21;36.08;;;25.70;;
73113;SDS011;61301;51.956;5.876;2023-02-22T01:24:48;34.20;;;24.17;;
73113;SDS011;61301;51.956;5.876;2023-02-22T01:27:17;31.98;;;21.98;;
73113;SDS011;61301;51.956;5.876;2023-02-22T01:29:43;33.38;;;21.63;;
73113;SDS011;61301;51.956;5.876;2023-02-22T01:32:14;32.30;;;22.80;;
73113;SDS011;61301;51.956;5.876;2023-02-22T01:34:40;32.95;;;21.55;;
73113;SDS011;61301;51.956;5.876;2023-02-22T01:37:09;33.72;;;22.33;;
73113;SDS011;61301;51.956;5.876;2023-02-22T01:39:36;33.28;;;22.85;;
73113;SDS011;61301;51.956;5.876;2023-02-22T01:42:02;31.08;;;19.73;;
73113;SDS011;61301;51.956;5.876;2023-02-22T01:44:33;33.72;;;22.58;;
73113;SDS011;61301;51.956;5.876;2023-02-22T01:47:01;35.47;;;22.95;;
73113;SDS011;61301;51.956;5.876;2023-02-22T01:49:31;33.47;;;21.25;;
73113;SDS011;61301;51.956;5.876;2023-02-22T01:52:02;30.25;;;21.10;;
73113;SDS011;61301;51.956;5.876;2023-02-22T01:54:54;35.95;;;23.42;;
73113;SDS011;61301;51.956;5.876;2023-02-22T01:59:50;40.08;;;24.45;;
73113;SDS011;61301;51.956;5.876;2023-02-22T02:02:20;36.25;;;24.48;;
73113;SDS011;61301;51.956;5.876;2023-02-22T02:04:55;31.42;;;20.80;;
73113;SDS011;61301;51.956;5.876;2023-02-22T02:07:22;33.92;;;22.60;;
73113;SDS011;61301;51.956;5.876;2023-02-22T02:09:53;38.28;;;24.50;;
73113;SDS011;61301;51.956;5.876;2023-02-22T02:12:39;32.25;;;20.23;;
73113;SDS011;61301;51.956;5.876;2023-02-22T02:15:22;34.17;;;21.60;;
73113;SDS011;61301;51.956;5.876;2023-02-22T02:17:51;34.05;;;20.67;;
73113;SDS011;61301;51.956;5.876;2023-02-22T02:23:30;36.95;;;23.45;;
73113;SDS011;61301;51.956;5.876;2023-02-22T02:26:38;30.75;;;19.02;;
73113;SDS011;61301;51.956;5.876;2023-02-22T02:32:38;35.63;;;20.50;;
73113;SDS011;61301;51.956;5.876;2023-02-22T02:40:46;35.58;;;21.67;;
73113;SDS011;61301;51.956;5.876;2023-02-22T02:48:38;38.17;;;24.00;;
73113;SDS011;61301;51.956;5.876;2023-02-22T02:51:08;38.28;;;24.10;;
73113;SDS011;61301;51.956;5.876;2023-02-22T02:53:40;34.78;;;21.50;;
73113;SDS011;61301;51.956;5.876;2023-02-22T02:56:09;34.00;;;20.60;;
73113;SDS011;61301;51.956;5.876;2023-02-22T02:58:48;31.50;;;20.00;;
73113;SDS011;61301;51.956;5.876;2023-02-22T03:15:39;33.20;;;21.17;;
73113;SDS011;61301;51.956;5.876;2023-02-22T03:21:13;41.83;;;24.07;;
73113;SDS011;61301;51.956;5.876;2023-02-22T03:24:06;37.45;;;21.73;;
73113;SDS011;61301;51.956;5.876;2023-02-22T03:27:13;30.60;;;18.30;;
73113;SDS011;61301;51.956;5.876;2023-02-22T03:29:38;39.65;;;22.92;;
73113;SDS011;61301;51.956;5.876;2023-02-22T03:32:09;41.65;;;23.65;;
73113;SDS011;61301;51.956;5.876;2023-02-22T03:34:41;34.05;;;20.52;;
73113;SDS011;61301;51.956;5.876;2023-02-22T03:37:16;32.45;;;19.35;;
73113;SDS011;61301;51.956;5.876;2023-02-22T03:39:50;34.40;;;19.00;;
73113;SDS011;61301;51.956;5.876;2023-02-22T03:42:20;34.63;;;22.17;;
73113;SDS011;61301;51.956;5.876;2023-02-22T03:44:59;39.60;;;23.77;;
73113;SDS011;61301;51.956;5.876;2023-02-22T03:50:32;40.35;;;24.48;;
73113;SDS011;61301;51.956;5.876;2023-02-22T03:53:02;38.95;;;22.85;;
73113;SDS011;61301;51.956;5.876;2023-02-22T03:55:32;36.75;;;22.50;;
73113;SDS011;61301;51.956;5.876;2023-02-22T03:57:59;40.63;;;23.08;;
73113;SDS011;61301;51.956;5.876;2023-02-22T04:00:31;40.03;;;23.90;;
73113;SDS011;61301;51.956;5.876;2023-02-22T04:02:59;33.67;;;21.25;;
73113;SDS011;61301;51.956;5.876;2023-02-22T04:05:26;30.63;;;18.98;;
73113;SDS011;61301;51.956;5.876;2023-02-22T04:07:54;37.22;;;21.15;;
73113;SDS011;61301;51.956;5.876;2023-02-22T04:10:22;33.88;;;19.67;;
73113;SDS011;61301;51.956;5.876;2023-02-22T04:12:48;35.15;;;20.70;;
73113;SDS011;61301;51.956;5.876;2023-02-22T04:15:16;34.65;;;20.05;;
73113;SDS011;61301;51.956;5.876;2023-02-22T04:17:49;39.10;;;25.08;;
73113;SDS011;61301;51.956;5.876;2023-02-22T04:20:17;30.55;;;16.63;;
73113;SDS011;61301;51.956;5.876;2023-02-22T04:22:54;41.10;;;24.27;;
73113;SDS011;61301;51.956;5.876;2023-02-22T04:25:21;34.50;;;20.80;;
73113;SDS011;61301;51.956;5.876;2023-02-22T04:27:48;45.45;;;24.50;;
73113;SDS011;61301;51.956;5.876;2023-02-22T04:30:18;35.70;;;20.65;;
73113;SDS011;61301;51.956;5.876;2023-02-22T04:32:46;43.97;;;24.27;;
73113;SDS011;61301;51.956;5.876;2023-02-22T04:35:14;37.10;;;22.20;;
73113;SDS011;61301;51.956;5.876;2023-02-22T04:37:41;40.65;;;23.02;;
73113;SDS011;61301;51.956;5.876;2023-02-22T04:40:07;38.60;;;23.15;;
73113;SDS011;61301;51.956;5.876;2023-02-22T04:42:35;40.92;;;23.23;;
73113;SDS011;61301;51.956;5.876;2023-02-22T04:45:02;46.50;;;27.20;;
73113;SDS011;61301;51.956;5.876;2023-02-22T04:47:29;46.40;;;26.63;;
73113;SDS011;61301;51.956;5.876;2023-02-22T04:49:57;43.55;;;25.02;;
73113;SDS011;61301;51.956;5.876;2023-02-22T04:52:25;42.42;;;25.33;;
73113;SDS011;61301;51.956;5.876;2023-02-22T04:54:52;44.00;;;24.33;;
73113;SDS011;61301;51.956;5.876;2023-02-22T04:57:18;38.83;;;21.48;;
73113;SDS011;61301;51.956;5.876;2023-02-22T04:59:44;48.40;;;26.27;;
73113;SDS011;61301;51.956;5.876;2023-02-22T05:02:11;50.33;;;28.63;;
73113;SDS011;61301;51.956;5.876;2023-02-22T05:04:37;48.60;;;25.30;;
73113;SDS011;61301;51.956;5.876;2023-02-22T05:07:04;54.08;;;29.42;;
73113;SDS011;61301;51.956;5.876;2023-02-22T05:09:30;49.40;;;28.73;;
73113;SDS011;61301;51.956;5.876;2023-02-22T05:11:56;52.25;;;30.27;;
73113;SDS011;61301;51.956;5.876;2023-02-22T05:14:22;52.95;;;28.67;;
73113;SDS011;61301;51.956;5.876;2023-02-22T05:16:52;52.33;;;28.48;;
73113;SDS011;61301;51.956;5.876;2023-02-22T05:19:20;53.50;;;29.25;;
73113;SDS011;61301;51.956;5.876;2023-02-22T05:21:46;45.83;;;23.90;;
73113;SDS011;61301;51.956;5.876;2023-02-22T05:24:12;51.30;;;26.95;;
73113;SDS011;61301;51.956;5.876;2023-02-22T05:26:38;59.63;;;31.45;;
73113;SDS011;61301;51.956;5.876;2023-02-22T05:29:05;54.55;;;31.63;;
73113;SDS011;61301;51.956;5.876;2023-02-22T05:31:31;53.30;;;30.00;;
73113;SDS011;61301;51.956;5.876;2023-02-22T05:33:57;50.22;;;25.63;;
73113;SDS011;61301;51.956;5.876;2023-02-22T05:36:23;50.80;;;28.00;;
73113;SDS011;61301;51.956;5.876;2023-02-22T05:38:50;45.75;;;23.50;;
73113;SDS011;61301;51.956;5.876;2023-02-22T05:41:16;47.25;;;25.98;;
73113;SDS011;61301;51.956;5.876;2023-02-22T05:43:42;49.67;;;27.75;;
73113;SDS011;61301;51.956;5.876;2023-02-22T05:46:08;53.53;;;28.67;;
73113;SDS011;61301;51.956;5.876;2023-02-22T05:48:34;45.30;;;24.65;;
73113;SDS011;61301;51.956;5.876;2023-02-22T05:51:00;37.90;;;21.30;;
73113;SDS011;61301;51.956;5.876;2023-02-22T05:53:26;51.17;;;27.15;;
73113;SDS011;61301;51.956;5.876;2023-02-22T05:55:52;58.10;;;30.35;;
73113;SDS011;61301;51.956;5.876;2023-02-22T05:58:18;52.85;;;29.20;;
73113;SDS011;61301;51.956;5.876;2023-02-22T06:00:44;42.25;;;22.30;;
73113;SDS011;61301;51.956;5.876;2023-02-22T06:03:10;55.40;;;30.15;;
73113;SDS011;61301;51.956;5.876;2023-02-22T06:05:39;57.63;;;29.08;;
73113;SDS011;61301;51.956;5.876;2023-02-22T06:08:05;60.70;;;31.42;;
73113;SDS011;61301;51.956;5.876;2023-02-22T06:10:32;56.40;;;30.27;;
73113;SDS011;61301;51.956;5.876;2023-02-22T06:12:59;55.28;;;31.45;;
73113;SDS011;61301;51.956;5.876;2023-02-22T06:15:26;57.72;;;30.40;;
73113;SDS011;61301;51.956;5.876;2023-02-22T06:17:53;59.50;;;30.35;;
73113;SDS011;61301;51.956;5.876;2023-02-22T06:20:21;55.40;;;29.45;;
73113;SDS011;61301;51.956;5.876;2023-02-22T06:22:49;52.78;;;30.70;;
73113;SDS011;61301;51.956;5.876;2023-02-22T06:25:17;58.92;;;33.13;;
73113;SDS011;61301;51.956;5.876;2023-02-22T06:27:45;56.78;;;29.75;;
73113;SDS011;61301;51.956;5.876;2023-02-22T06:30:11;63.75;;;32.53;;
73113;SDS011;61301;51.956;5.876;2023-02-22T06:32:38;61.72;;;29.73;;
73113;SDS011;61301;51.956;5.876;2023-02-22T06:35:04;57.20;;;30.95;;
73113;SDS011;61301;51.956;5.876;2023-02-22T06:37:30;63.75;;;33.35;;
73113;SDS011;61301;51.956;5.876;2023-02-22T06:39:56;53.05;;;28.25;;
73113;SDS011;61301;51.956;5.876;2023-02-22T06:42:22;55.28;;;29.80;;
73113;SDS011;61301;51.956;5.876;2023-02-22T06:44:48;57.90;;;30.52;;
73113;SDS011;61301;51.956;5.876;2023-02-22T06:47:14;55.72;;;29.00;;
73113;SDS011;61301;51.956;5.876;2023-02-22T06:49:40;51.10;;;27.42;;
73113;SDS011;61301;51.956;5.876;2023-02-22T06:52:07;48.92;;;24.52;;
73113;SDS011;61301;51.956;5.876;2023-02-22T06:54:34;37.95;;;19.77;;
73113;SDS011;61301;51.956;5.876;2023-02-22T06:57:01;47.08;;;25.35;;
73113;SDS011;61301;51.956;5.876;2023-02-22T06:59:27;43.78;;;23.58;;
73113;SDS011;61301;51.956;5.876;2023-02-22T07:01:53;43.08;;;21.58;;
73113;SDS011;61301;51.956;5.876;2023-02-22T07:04:19;41.17;;;22.67;;
73113;SDS011;61301;51.956;5.876;2023-02-22T07:06:46;41.53;;;23.75;;
73113;SDS011;61301;51.956;5.876;2023-02-22T07:09:14;48.55;;;28.13;;
73113;SDS011;61301;51.956;5.876;2023-02-22T07:11:41;48.55;;;26.63;;
73113;SDS011;61301;51.956;5.876;2023-02-22T07:14:07;44.35;;;23.40;;
73113;SDS011;61301;51.956;5.876;2023-02-22T07:16:33;36.05;;;20.02;;
73113;SDS011;61301;51.956;5.876;2023-02-22T07:18:59;38.38;;;22.38;;
73113;SDS011;61301;51.956;5.876;2023-02-22T07:21:27;36.90;;;18.70;;
73113;SDS011;61301;51.956;5.876;2023-02-22T07:23:56;32.63;;;16.70;;
73113;SDS011;61301;51.956;5.876;2023-02-22T07:26:23;27.27;;;15.80;;
73113;SDS011;61301;51.956;5.876;2023-02-22T07:28:50;40.38;;;19.65;;
73113;SDS011;61301;51.956;5.876;2023-02-22T07:31:16;39.95;;;22.10;;
73113;SDS011;61301;51.956;5.876;2023-02-22T07:33:44;36.35;;;21.08;;
73113;SDS011;61301;51.956;5.876;2023-02-22T07:36:11;45.72;;;22.98;;
73113;SDS011;61301;51.956;5.876;2023-02-22T07:38:39;43.35;;;23.63;;
73113;SDS011;61301;51.956;5.876;2023-02-22T07:41:05;35.35;;;19.17;;
73113;SDS011;61301;51.956;5.876;2023-02-22T07:43:31;46.58;;;24.25;;
73113;SDS011;61301;51.956;5.876;2023-02-22T07:45:58;46.95;;;23.77;;
73113;SDS011;61301;51.956;5.876;2023-02-22T07:48:28;52.45;;;24.88;;
73113;SDS011;61301;51.956;5.876;2023-02-22T07:50:55;41.50;;;22.20;;
73113;SDS011;61301;51.956;5.876;2023-02-22T07:53:29;40.25;;;22.08;;
73113;SDS011;61301;51.956;5.876;2023-02-22T07:55:58;39.33;;;19.95;;
73113;SDS011;61301;51.956;5.876;2023-02-22T07:58:26;49.50;;;23.85;;
73113;SDS011;61301;51.956;5.876;2023-02-22T08:00:54;56.70;;;28.83;;
73113;SDS011;61301;51.956;5.876;2023-02-22T08:03:21;57.28;;;29.48;;
73113;SDS011;61301;51.956;5.876;2023-02-22T08:05:50;56.08;;;28.55;;
73113;SDS011;61301;51.956;5.876;2023-02-22T08:08:17;62.97;;;31.33;;
73113;SDS011;61301;51.956;5.876;2023-02-22T08:10:43;53.83;;;28.70;;
73113;SDS011;61301;51.956;5.876;2023-02-22T08:13:10;51.65;;;27.05;;
73113;SDS011;61301;51.956;5.876;2023-02-22T08:15:37;48.05;;;26.67;;
73113;SDS011;61301;51.956;5.876;2023-02-22T08:18:06;64.32;;;31.17;;
73113;SDS011;61301;51.956;5.876;2023-02-22T08:20:34;71.00;;;32.67;;
73113;SDS011;61301;51.956;5.876;2023-02-22T08:23:01;52.58;;;26.45;;
73113;SDS011;61301;51.956;5.876;2023-02-22T08:25:28;51.65;;;24.25;;
73113;SDS011;61301;51.956;5.876;2023-02-22T08:27:58;64.38;;;30.83;;
73113;SDS011;61301;51.956;5.876;2023-02-22T08:30:26;59.88;;;29.70;;
73113;SDS011;61301;51.956;5.876;2023-02-22T08:32:54;50.63;;;25.83;;
73113;SDS011;61301;51.956;5.876;2023-02-22T08:35:20;56.28;;;28.35;;
73113;SDS011;61301;51.956;5.876;2023-02-22T08:37:51;70.53;;;35.08;;
73113;SDS011;61301;51.956;5.876;2023-02-22T08:40:20;56.90;;;29.70;;
73113;SDS011;61301;51.956;5.876;2023-02-22T08:42:48;59.80;;;29.65;;
73113;SDS011;61301;51.956;5.876;2023-02-22T08:45:14;50.92;;;25.70;;
73113;SDS011;61301;51.956;5.876;2023-02-22T08:47:41;68.88;;;34.10;;
73113;SDS011;61301;51.956;5.876;2023-02-22T08:50:09;63.00;;;30.55;;
73113;SDS011;61301;51.956;5.876;2023-02-22T08:52:49;56.20;;;27.90;;
73113;SDS011;61301;51.956;5.876;2023-02-22T08:55:20;54.80;;;27.17;;
73113;SDS011;61301;51.956;5.876;2023-02-22T08:57:47;51.55;;;25.52;;
73113;SDS011;61301;51.956;5.876;2023-02-22T09:00:13;50.80;;;24.48;;
73113;SDS011;61301;51.956;5.876;2023-02-22T09:02:40;56.97;;;28.15;;
73113;SDS011;61301;51.956;5.876;2023-02-22T09:05:06;51.38;;;25.67;;
73113;SDS011;61301;51.956;5.876;2023-02-22T09:07:32;52.55;;;26.27;;
73113;SDS011;61301;51.956;5.876;2023-02-22T09:09:58;55.30;;;27.08;;
73113;SDS011;61301;51.956;5.876;2023-02-22T09:12:24;40.40;;;20.23;;
73113;SDS011;61301;51.956;5.876;2023-02-22T09:14:50;49.85;;;24.45;;
73113;SDS011;61301;51.956;5.876;2023-02-22T09:17:16;48.67;;;25.48;;
73113;SDS011;61301;51.956;5.876;2023-02-22T09:19:42;35.95;;;17.80;;
73113;SDS011;61301;51.956;5.876;2023-02-22T09:22:10;35.08;;;16.90;;
73113;SDS011;61301;51.956;5.876;2023-02-22T09:24:36;31.95;;;15.98;;
73113;SDS011;61301;51.956;5.876;2023-02-22T09:27:02;38.05;;;19.85;;
73113;SDS011;61301;51.956;5.876;2023-02-22T09:29:29;40.45;;;21.15;;
73113;SDS011;61301;51.956;5.876;2023-02-22T09:31:55;44.50;;;22.08;;
73113;SDS011;61301;51.956;5.876;2023-02-22T09:34:22;33.25;;;17.70;;
73113;SDS011;61301;51.956;5.876;2023-02-22T09:36:54;40.10;;;20.08;;
73113;SDS011;61301;51.956;5.876;2023-02-22T09:39:22;38.05;;;20.25;;
73113;SDS011;61301;51.956;5.876;2023-02-22T09:42:02;46.75;;;24.58;;
73113;SDS011;61301;51.956;5.876;2023-02-22T09:44:39;52.85;;;26.20;;
73113;SDS011;61301;51.956;5.876;2023-02-22T09:47:08;47.45;;;24.42;;
73113;SDS011;61301;51.956;5.876;2023-02-22T09:49:43;42.17;;;22.60;;
73113;SDS011;61301;51.956;5.876;2023-02-22T09:52:32;39.10;;;21.85;;
73113;SDS011;61301;51.956;5.876;2023-02-22T09:55:14;42.70;;;22.08;;
73113;SDS011;61301;51.956;5.876;2023-02-22T09:58:17;35.30;;;19.10;;
73113;SDS011;61301;51.956;5.876;2023-02-22T10:00:56;36.83;;;20.30;;
73113;SDS011;61301;51.956;5.876;2023-02-22T10:03:35;34.73;;;18.20;;
73113;SDS011;61301;51.956;5.876;2023-02-22T10:06:09;36.75;;;19.65;;
73113;SDS011;61301;51.956;5.876;2023-02-22T10:08:39;40.08;;;21.55;;
73113;SDS011;61301;51.956;5.876;2023-02-22T10:17:13;43.88;;;22.60;;
73113;SDS011;61301;51.956;5.876;2023-02-22T10:25:40;45.85;;;23.80;;
73113;SDS011;61301;51.956;5.876;2023-02-22T10:28:12;43.50;;;23.77;;
73113;SDS011;61301;51.956;5.876;2023-02-22T10:33:22;38.90;;;21.63;;
73113;SDS011;61301;51.956;5.876;2023-02-22T10:35:52;35.15;;;19.83;;
73113;SDS011;61301;51.956;5.876;2023-02-22T10:38:20;36.00;;;20.95;;
73113;SDS011;61301;51.956;5.876;2023-02-22T10:43:36;32.40;;;17.58;;
73113;SDS011;61301;51.956;5.876;2023-02-22T10:46:04;36.55;;;20.35;;
73113;SDS011;61301;51.956;5.876;2023-02-22T10:48:33;42.50;;;25.33;;
73113;SDS011;61301;51.956;5.876;2023-02-22T10:51:04;38.13;;;21.83;;
73113;SDS011;61301;51.956;5.876;2023-02-22T10:53:33;36.17;;;22.75;;
73113;SDS011;61301;51.956;5.876;2023-02-22T10:56:06;37.83;;;21.08;;
73113;SDS011;61301;51.956;5.876;2023-02-22T10:58:40;41.10;;;23.38;;
73113;SDS011;61301;51.956;5.876;2023-02-22T11:01:18;34.33;;;21.27;;
73113;SDS011;61301;51.956;5.876;2023-02-22T11:04:08;37.60;;;24.38;;
73113;SDS011;61301;51.956;5.876;2023-02-22T11:06:41;37.22;;;22.45;;
73113;SDS011;61301;51.956;5.876;2023-02-22T11:09:10;37.20;;;22.73;;
73113;SDS011;61301;51.956;5.876;2023-02-22T11:11:40;37.88;;;21.92;;
73113;SDS011;61301;51.956;5.876;2023-02-22T11:14:08;46.63;;;27.08;;
73113;SDS011;61301;51.956;5.876;2023-02-22T11:16:51;39.65;;;23.50;;
73113;SDS011;61301;51.956;5.876;2023-02-22T11:19:23;38.83;;;23.17;;
73113;SDS011;61301;51.956;5.876;2023-02-22T11:22:09;42.10;;;24.88;;
73113;SDS011;61301;51.956;5.876;2023-02-22T11:24:46;41.55;;;23.25;;
73113;SDS011;61301;51.956;5.876;2023-02-22T11:30:10;39.35;;;24.30;;
73113;SDS011;61301;51.956;5.876;2023-02-22T11:32:57;36.72;;;22.58;;
73113;SDS011;61301;51.956;5.876;2023-02-22T11:38:22;30.52;;;19.33;;
73113;SDS011;61301;51.956;5.876;2023-02-22T11:43:30;32.33;;;19.17;;
73113;SDS011;61301;51.956;5.876;2023-02-22T11:48:34;35.92;;;20.60;;
73113;SDS011;61301;51.956;5.876;2023-02-22T11:51:11;30.98;;;19.63;;
73113;SDS011;61301;51.956;5.876;2023-02-22T11:56:41;30.05;;;18.55;;
73113;SDS011;61301;51.956;5.876;2023-02-22T12:01:57;33.03;;;20.27;;
73113;SDS011;61301;51.956;5.876;2023-02-22T12:12:44;33.97;;;21.08;;
73113;SDS011;61301;51.956;5.876;2023-02-22T12:15:22;29.42;;;17.92;;
73113;SDS011;61301;51.956;5.876;2023-02-22T12:18:16;30.70;;;19.17;;
73113;SDS011;61301;51.956;5.876;2023-02-22T12:21:00;32.22;;;20.58;;
73113;SDS011;61301;51.956;5.876;2023-02-22T12:26:17;31.55;;;20.23;;
73113;SDS011;61301;51.956;5.876;2023-02-22T12:31:49;25.67;;;17.67;;
73113;SDS011;61301;51.956;5.876;2023-02-22T12:34:27;29.20;;;20.30;;
73113;SDS011;61301;51.956;5.876;2023-02-22T12:39:55;28.90;;;19.73;;
73113;SDS011;61301;51.956;5.876;2023-02-22T12:45:12;28.27;;;19.73;;
73113;SDS011;61301;51.956;5.876;2023-02-22T12:48:06;23.45;;;16.85;;
73113;SDS011;61301;51.956;5.876;2023-02-22T12:50:37;26.15;;;16.98;;
73113;SDS011;61301;51.956;5.876;2023-02-22T12:53:17;22.67;;;15.98;;
73113;SDS011;61301;51.956;5.876;2023-02-22T12:55:51;25.55;;;17.25;;
73113;SDS011;61301;51.956;5.876;2023-02-22T12:58:43;25.63;;;16.88;;
73113;SDS011;61301;51.956;5.876;2023-02-22T13:01:16;24.33;;;16.00;;
73113;SDS011;61301;51.956;5.876;2023-02-22T13:03:45;26.33;;;18.63;;
73113;SDS011;61301;51.956;5.876;2023-02-22T13:06:18;21.73;;;14.45;;
73113;SDS011;61301;51.956;5.876;2023-02-22T13:17:13;24.17;;;16.90;;
73113;SDS011;61301;51.956;5.876;2023-02-22T13:22:40;26.85;;;17.63;;
73113;SDS011;61301;51.956;5.876;2023-02-22T13:30:21;22.67;;;14.55;;
73113;SDS011;61301;51.956;5.876;2023-02-22T13:38:45;28.05;;;18.38;;
73113;SDS011;61301;51.956;5.876;2023-02-22T13:44:34;23.13;;;15.77;;
73113;SDS011;61301;51.956;5.876;2023-02-22T13:49:57;20.67;;;14.32;;
73113;SDS011;61301;51.956;5.876;2023-02-22T13:52:43;21.80;;;15.50;;
73113;SDS011;61301;51.956;5.876;2023-02-22T13:55:14;21.25;;;14.73;;
73113;SDS011;61301;51.956;5.876;2023-02-22T13:57:45;22.52;;;14.90;;
73113;SDS011;61301;51.956;5.876;2023-02-22T14:11:44;29.27;;;18.80;;
73113;SDS011;61301;51.956;5.876;2023-02-22T14:16:26;23.17;;;15.38;;
73113;SDS011;61301;51.956;5.876;2023-02-22T14:21:34;19.25;;;13.38;;
73113;SDS011;61301;51.956;5.876;2023-02-22T14:24:08;27.45;;;18.17;;
73113;SDS011;61301;51.956;5.876;2023-02-22T14:26:38;18.98;;;13.80;;
73113;SDS011;61301;51.956;5.876;2023-02-22T14:31:33;22.33;;;16.02;;
73113;SDS011;61301;51.956;5.876;2023-02-22T14:36:58;22.65;;;15.45;;
73113;SDS011;61301;51.956;5.876;2023-02-22T14:45:03;21.38;;;14.10;;
73113;SDS011;61301;51.956;5.876;2023-02-22T14:52:39;25.27;;;16.98;;
73113;SDS011;61301;51.956;5.876;2023-02-22T14:55:20;22.90;;;16.17;;
73113;SDS011;61301;51.956;5.876;2023-02-22T15:00:46;23.10;;;16.17;;
73113;SDS011;61301;51.956;5.876;2023-02-22T15:05:43;22.38;;;15.60;;
73113;SDS011;61301;51.956;5.876;2023-02-22T15:08:11;22.63;;;14.05;;
73113;SDS011;61301;51.956;5.876;2023-02-22T15:10:41;23.13;;;17.88;;
73113;SDS011;61301;51.956;5.876;2023-02-22T15:15:47;26.25;;;18.55;;
73113;SDS011;61301;51.956;5.876;2023-02-22T15:18:26;28.63;;;18.20;;
73113;SDS011;61301;51.956;5.876;2023-02-22T15:20:55;23.50;;;16.63;;
73113;SDS011;61301;51.956;5.876;2023-02-22T15:23:24;25.85;;;17.85;;
73113;SDS011;61301;51.956;5.876;2023-02-22T15:25:54;20.05;;;15.98;;
73113;SDS011;61301;51.956;5.876;2023-02-22T15:28:22;25.75;;;18.85;;
73113;SDS011;61301;51.956;5.876;2023-02-22T15:30:50;23.50;;;16.75;;
73113;SDS011;61301;51.956;5.876;2023-02-22T15:33:36;23.90;;;17.92;;
73113;SDS011;61301;51.956;5.876;2023-02-22T15:36:02;25.13;;;18.73;;
73113;SDS011;61301;51.956;5.876;2023-02-22T15:38:29;23.15;;;17.70;;
73113;SDS011;61301;51.956;5.876;2023-02-22T15:41:02;19.88;;;16.02;;
73113;SDS011;61301;51.956;5.876;2023-02-22T15:43:33;21.45;;;15.55;;
73113;SDS011;61301;51.956;5.876;2023-02-22T15:45:59;24.30;;;15.27;;
73113;SDS011;61301;51.956;5.876;2023-02-22T15:48:26;23.38;;;16.90;;
73113;SDS011;61301;51.956;5.876;2023-02-22T15:51:08;22.48;;;16.63;;
73113;SDS011;61301;51.956;5.876;2023-02-22T15:53:45;23.83;;;16.88;;
73113;SDS011;61301;51.956;5.876;2023-02-22T15:56:13;19.15;;;15.25;;
73113;SDS011;61301;51.956;5.876;2023-02-22T15:58:43;21.33;;;15.68;;
73113;SDS011;61301;51.956;5.876;2023-02-22T16:01:15;19.75;;;14.15;;
73113;SDS011;61301;51.956;5.876;2023-02-22T16:06:21;19.38;;;15.27;;
73113;SDS011;61301;51.956;5.876;2023-02-22T16:09:07;19.50;;;14.68;;
73113;SDS011;61301;51.956;5.876;2023-02-22T16:11:37;20.20;;;15.98;;
73113;SDS011;61301;51.956;5.876;2023-02-22T16:17:24;20.15;;;15.38;;
73113;SDS011;61301;51.956;5.876;2023-02-22T16:22:42;22.60;;;15.63;;
73113;SDS011;61301;51.956;5.876;2023-02-22T16:27:48;21.88;;;15.90;;
73113;SDS011;61301;51.956;5.876;2023-02-22T16:32:49;19.27;;;13.57;;
73113;SDS011;61301;51.956;5.876;2023-02-22T16:35:16;21.85;;;15.30;;
73113;SDS011;61301;51.956;5.876;2023-02-22T16:37:43;20.00;;;15.15;;
73113;SDS011;61301;51.956;5.876;2023-02-22T16:40:11;24.33;;;16.25;;
73113;SDS011;61301;51.956;5.876;2023-02-22T16:42:47;23.10;;;16.60;;
73113;SDS011;61301;51.956;5.876;2023-02-22T16:45:19;21.15;;;15.15;;
73113;SDS011;61301;51.956;5.876;2023-02-22T16:47:46;20.48;;;15.55;;
73113;SDS011;61301;51.956;5.876;2023-02-22T16:50:18;19.05;;;14.85;;
73113;SDS011;61301;51.956;5.876;2023-02-22T16:52:46;19.83;;;14.43;;
73113;SDS011;61301;51.956;5.876;2023-02-22T16:55:13;23.20;;;18.80;;
73113;SDS011;61301;51.956;5.876;2023-02-22T16:57:41;22.33;;;15.63;;
73113;SDS011;61301;51.956;5.876;2023-02-22T17:00:12;18.70;;;15.23;;
73113;SDS011;61301;51.956;5.876;2023-02-22T17:02:40;26.40;;;20.20;;
73113;SDS011;61301;51.956;5.876;2023-02-22T17:05:07;21.85;;;16.77;;
73113;SDS011;61301;51.956;5.876;2023-02-22T17:07:37;22.15;;;18.77;;
73113;SDS011;61301;51.956;5.876;2023-02-22T17:10:05;23.67;;;18.45;;
73113;SDS011;61301;51.956;5.876;2023-02-22T17:12:31;23.70;;;18.25;;
73113;SDS011;61301;51.956;5.876;2023-02-22T17:14:57;21.58;;;16.90;;
73113;SDS011;61301;51.956;5.876;2023-02-22T17:17:23;21.30;;;16.33;;
73113;SDS011;61301;51.956;5.876;2023-02-22T17:19:51;19.38;;;15.32;;
73113;SDS011;61301;51.956;5.876;2023-02-22T17:22:18;28.92;;;19.65;;
73113;SDS011;61301;51.956;5.876;2023-02-22T17:24:45;21.50;;;16.60;;
73113;SDS011;61301;51.956;5.876;2023-02-22T17:27:12;25.38;;;19.33;;
73113;SDS011;61301;51.956;5.876;2023-02-22T17:29:39;23.13;;;16.85;;
73113;SDS011;61301;51.956;5.876;2023-02-22T17:32:05;18.80;;;14.95;;
73113;SDS011;61301;51.956;5.876;2023-02-22T17:34:32;17.58;;;13.50;;